createdAt,value
2019-06-26T00:00:48.266Z,7.90
2019-06-26T00:03:18.550Z,8.30
2019-06-26T00:05:48.605Z,8.68
2019-06-26T00:08:18.302Z,9.67
2019-06-26T00:10:48.721Z,8.15
2019-06-26T00:13:25.992Z,8.50
2019-06-26T00:15:49.999Z,8.60
2019-06-26T00:18:19.340Z,8.67
2019-06-26T00:20:49.347Z,9.23
2019-06-26T00:23:19.379Z,8.80
2019-06-26T00:25:49.937Z,9.00
2019-06-26T00:28:20.070Z,9.20
2019-06-26T00:30:50.071Z,8.88
2019-06-26T00:33:20.429Z,9.13
2019-06-26T00:35:50.464Z,8.30
2019-06-26T00:38:20.184Z,9.23
2019-06-26T00:40:50.313Z,8.90
2019-06-26T00:43:20.386Z,9.38
2019-06-26T00:45:50.398Z,8.78
2019-06-26T00:48:20.602Z,9.08
2019-06-26T00:50:50.634Z,8.83
2019-06-26T00:53:20.461Z,8.80
2019-06-26T00:55:50.786Z,8.78
2019-06-26T00:58:20.805Z,10.10
2019-06-26T01:00:51.486Z,8.68
2019-06-26T01:03:21.291Z,10.00
2019-06-26T01:05:51.259Z,9.20
2019-06-26T01:08:21.166Z,9.18
2019-06-26T01:10:51.277Z,9.60
2019-06-26T01:13:21.618Z,9.10
2019-06-26T01:15:51.662Z,10.00
2019-06-26T01:18:21.749Z,9.07
2019-06-26T01:20:51.670Z,9.40
2019-06-26T01:23:21.495Z,9.90
2019-06-26T01:25:52.722Z,9.75
2019-06-26T01:28:22.337Z,9.47
2019-06-26T01:30:52.391Z,9.20
2019-06-26T01:33:22.677Z,8.84
2019-06-26T01:35:52.805Z,9.15
2019-06-26T01:38:22.901Z,9.58
2019-06-26T01:40:53.871Z,10.03
2019-06-26T01:43:23.200Z,9.10
2019-06-26T01:45:53.314Z,9.72
2019-06-26T01:48:23.263Z,9.10
2019-06-26T01:50:53.402Z,9.08
2019-06-26T01:53:23.534Z,9.58
2019-06-26T01:55:54.424Z,9.58
2019-06-26T01:58:23.953Z,10.00
2019-06-26T02:00:54.025Z,10.40
2019-06-26T02:03:24.033Z,10.32
2019-06-26T02:05:54.019Z,9.68
2019-06-26T02:08:24.146Z,8.80
2019-06-26T02:10:54.481Z,10.13
2019-06-26T02:13:24.363Z,9.90
2019-06-26T02:15:54.302Z,9.70
2019-06-26T02:18:42.369Z,9.85
2019-06-26T02:21:11.840Z,10.00
2019-06-26T02:23:41.162Z,10.10
2019-06-26T02:26:10.810Z,8.95
2019-06-26T02:28:40.281Z,9.80
2019-06-26T02:31:09.916Z,10.10
2019-06-26T02:33:39.196Z,10.13
2019-06-26T02:36:09.030Z,9.78
2019-06-26T02:38:38.566Z,9.43
2019-06-26T02:41:07.826Z,10.00
2019-06-26T02:43:37.591Z,9.40
2019-06-26T02:46:07.130Z,10.57
2019-06-26T02:48:36.632Z,10.73
2019-06-26T02:51:05.954Z,9.60
2019-06-26T02:53:35.416Z,9.67
2019-06-26T02:56:05.290Z,10.03
2019-06-26T02:58:34.683Z,9.57
2019-06-26T03:01:04.162Z,10.47
2019-06-26T03:03:33.923Z,10.50
2019-06-26T03:06:03.404Z,9.75
2019-06-26T03:08:32.862Z,9.48
2019-06-26T03:11:02.059Z,10.10
2019-06-26T03:13:31.538Z,10.18
2019-06-26T03:16:01.008Z,10.30
2019-06-26T03:18:30.568Z,9.50
2019-06-26T03:20:59.993Z,9.83
2019-06-26T03:23:29.554Z,10.23
2019-06-26T03:25:59.025Z,9.90
2019-06-26T03:28:28.469Z,10.20
2019-06-26T03:30:57.978Z,10.33
2019-06-26T03:33:28.271Z,10.40
2019-06-26T03:35:57.535Z,10.40
2019-06-26T03:38:27.089Z,10.60
2019-06-26T03:40:56.573Z,11.20
2019-06-26T03:43:25.855Z,10.03
2019-06-26T03:45:55.351Z,9.90
2019-06-26T03:48:24.822Z,11.33
2019-06-26T03:50:54.299Z,10.10
2019-06-26T03:53:24.132Z,9.55
2019-06-26T03:55:54.958Z,10.97
2019-06-26T03:58:24.582Z,10.63
2019-06-26T04:00:54.555Z,9.30
2019-06-26T04:03:24.666Z,10.60
2019-06-26T04:05:54.655Z,11.03
2019-06-26T04:08:24.296Z,10.70
2019-06-26T04:10:55.436Z,10.13
2019-06-26T04:13:24.802Z,11.30
2019-06-26T04:15:54.930Z,10.30
2019-06-26T04:18:25.022Z,10.73
2019-06-26T04:20:54.910Z,10.30
2019-06-26T04:23:24.696Z,10.80
2019-06-26T04:25:55.094Z,10.43
2019-06-26T04:28:25.475Z,9.90
2019-06-26T04:30:55.642Z,10.30
2019-06-26T04:33:26.311Z,12.50
2019-06-26T04:35:56.415Z,9.73
2019-06-26T04:38:26.538Z,10.80
2019-06-26T04:40:57.327Z,10.65
2019-06-26T04:43:26.961Z,10.83
2019-06-26T04:45:58.561Z,10.67
2019-06-26T04:48:28.108Z,11.60
2019-06-26T04:50:57.303Z,11.73
2019-06-26T04:53:26.739Z,12.10
2019-06-26T04:55:56.308Z,11.47
2019-06-26T04:58:26.778Z,12.57
2019-06-26T05:00:57.191Z,12.67
2019-06-26T05:03:27.398Z,13.95
2019-06-26T05:05:57.917Z,12.80
2019-06-26T05:08:28.011Z,13.68
2019-06-26T05:10:58.022Z,12.70
2019-06-26T05:13:28.152Z,12.50
2019-06-26T05:16:13.339Z,13.05
2019-06-26T05:18:29.330Z,13.00
2019-06-26T05:20:58.657Z,16.20
2019-06-26T05:23:28.955Z,19.13
2019-06-26T05:25:58.553Z,14.17
2019-06-26T05:28:28.572Z,20.05
2019-06-26T05:30:58.553Z,14.23
2019-06-26T05:33:28.796Z,12.60
2019-06-26T05:35:58.898Z,15.45
2019-06-26T05:38:28.927Z,13.88
2019-06-26T05:40:59.445Z,15.48
2019-06-26T05:43:29.474Z,15.70
2019-06-26T05:45:59.388Z,15.13
2019-06-26T05:48:29.771Z,13.68
2019-06-26T05:51:05.041Z,14.12
2019-06-26T05:53:34.780Z,15.47
2019-06-26T05:56:04.050Z,13.68
2019-06-26T05:58:33.559Z,14.33
2019-06-26T06:01:03.145Z,14.90
2019-06-26T06:03:32.503Z,15.00
2019-06-26T06:06:02.109Z,14.60
2019-06-26T06:08:31.621Z,16.50
2019-06-26T06:11:00.839Z,14.17
2019-06-26T06:13:30.832Z,14.03
2019-06-26T06:16:00.822Z,14.60
2019-06-26T06:18:30.861Z,16.05
2019-06-26T06:21:01.308Z,13.93
2019-06-26T06:23:31.381Z,15.77
2019-06-26T06:26:01.634Z,14.13
2019-06-26T06:28:31.496Z,13.13
2019-06-26T06:31:01.503Z,12.95
2019-06-26T06:33:31.879Z,14.78
2019-06-26T06:36:01.943Z,13.75
2019-06-26T06:38:32.110Z,14.83
2019-06-26T06:41:02.221Z,16.15
2019-06-26T06:43:32.281Z,15.65
2019-06-26T06:46:02.288Z,22.37
2019-06-26T06:48:32.386Z,16.02
2019-06-26T06:51:03.101Z,17.02
2019-06-26T06:53:33.023Z,18.00
2019-06-26T06:56:02.980Z,13.43
2019-06-26T06:58:32.995Z,13.80
2019-06-26T07:01:03.382Z,13.93
2019-06-26T07:03:33.385Z,18.82
2019-06-26T07:06:03.631Z,12.30
2019-06-26T07:08:33.750Z,13.25
2019-06-26T07:11:03.778Z,22.30
2019-06-26T07:13:34.015Z,12.30
2019-06-26T07:16:04.292Z,12.30
2019-06-26T07:18:34.435Z,16.80
2019-06-26T07:21:04.646Z,12.47
2019-06-26T07:23:34.585Z,13.40
2019-06-26T07:26:04.583Z,13.93
2019-06-26T07:28:34.943Z,15.95
2019-06-26T07:31:04.918Z,13.55
2019-06-26T07:33:34.973Z,12.20
2019-06-26T07:36:04.959Z,13.08
2019-06-26T07:38:35.083Z,11.43
2019-06-26T07:41:05.699Z,12.36
2019-06-26T07:43:35.834Z,13.10
2019-06-26T07:46:06.078Z,13.62
2019-06-26T07:48:36.269Z,12.93
2019-06-26T07:51:06.416Z,12.33
2019-06-26T07:53:36.502Z,11.88
2019-06-26T07:56:06.581Z,12.23
2019-06-26T07:58:36.860Z,12.80
2019-06-26T08:01:06.875Z,12.65
2019-06-26T08:03:37.015Z,14.58
2019-06-26T08:06:07.259Z,12.18
2019-06-26T08:08:37.358Z,12.78
2019-06-26T08:11:07.619Z,11.50
2019-06-26T08:13:37.627Z,12.53
2019-06-26T08:16:07.485Z,11.55
2019-06-26T08:18:37.521Z,11.53
2019-06-26T08:21:12.498Z,12.43
2019-06-26T08:23:38.757Z,11.57
2019-06-26T08:26:08.131Z,12.17
2019-06-26T08:28:38.095Z,12.33
2019-06-26T08:31:08.123Z,10.45
2019-06-26T08:33:38.130Z,10.78
2019-06-26T08:36:08.126Z,11.15
2019-06-26T08:38:38.264Z,10.75
2019-06-26T08:41:08.265Z,10.15
2019-06-26T08:43:38.286Z,10.50
2019-06-26T08:46:08.408Z,10.78
2019-06-26T08:48:40.432Z,10.68
2019-06-26T08:51:09.601Z,10.07
2019-06-26T08:53:38.874Z,9.65
2019-06-26T08:56:08.939Z,11.60
2019-06-26T08:58:38.917Z,11.22
2019-06-26T09:01:09.034Z,12.40
2019-06-26T09:03:42.016Z,10.58
2019-06-26T09:06:09.808Z,10.45
2019-06-26T09:08:39.081Z,11.47
2019-06-26T09:11:08.462Z,10.63
2019-06-26T09:13:37.706Z,10.40
2019-06-26T09:16:07.240Z,10.50
2019-06-26T09:18:36.718Z,10.80
2019-06-26T09:21:05.914Z,9.80
2019-06-26T09:23:35.458Z,10.60
2019-06-26T09:26:04.976Z,10.27
2019-06-26T09:28:34.256Z,9.73
2019-06-26T09:31:03.526Z,9.57
2019-06-26T09:33:32.950Z,9.50
2019-06-26T09:36:02.391Z,10.23
2019-06-26T09:38:31.927Z,10.30
2019-06-26T09:41:01.119Z,9.25
2019-06-26T09:43:30.306Z,9.37
2019-06-26T09:46:00.087Z,10.75
2019-06-26T09:48:29.635Z,8.90
2019-06-26T09:50:59.179Z,9.70
2019-06-26T09:53:42.644Z,10.08
2019-06-26T09:55:59.649Z,9.10
2019-06-26T09:58:28.839Z,10.47
2019-06-26T10:00:58.329Z,9.50
2019-06-26T10:03:27.854Z,9.37
2019-06-26T10:05:57.378Z,10.13
2019-06-26T10:08:26.864Z,9.20
2019-06-26T10:10:56.698Z,8.87
2019-06-26T10:13:26.174Z,9.07
2019-06-26T10:15:55.679Z,9.33
2019-06-26T10:18:25.623Z,8.83
2019-06-26T10:20:55.546Z,8.88
2019-06-26T10:23:25.259Z,9.10
2019-06-26T10:25:56.491Z,8.93
2019-06-26T10:28:25.984Z,8.57
2019-06-26T10:30:55.935Z,7.30
2019-06-26T10:33:25.937Z,8.07
2019-06-26T10:35:56.029Z,8.50
2019-06-26T10:38:25.652Z,8.03
2019-06-26T10:40:55.874Z,7.83
2019-06-26T10:43:26.007Z,8.73
2019-06-26T10:45:56.006Z,8.03
2019-06-26T10:48:26.038Z,7.67
2019-06-26T10:50:58.922Z,7.67
2019-06-26T10:53:26.976Z,7.03
2019-06-26T10:55:57.481Z,7.40
2019-06-26T10:58:26.726Z,6.57
2019-06-26T11:00:56.563Z,7.33
2019-06-26T11:03:26.843Z,6.97
2019-06-26T11:05:56.906Z,7.35
2019-06-26T11:08:26.894Z,9.43
2019-06-26T11:10:58.064Z,7.28
2019-06-26T11:13:27.357Z,6.63
2019-06-26T11:15:57.268Z,6.80
2019-06-26T11:18:27.157Z,7.15
2019-06-26T11:20:57.496Z,7.42
2019-06-26T11:23:27.511Z,7.10
2019-06-26T11:25:58.585Z,7.50
2019-06-26T11:28:27.978Z,6.43
2019-06-26T11:30:57.979Z,6.50
2019-06-26T11:33:28.195Z,7.47
2019-06-26T11:35:58.157Z,7.00
2019-06-26T11:38:28.742Z,6.83
2019-06-26T11:41:01.784Z,6.67
2019-06-26T11:43:30.603Z,6.77
2019-06-26T11:46:00.061Z,6.87
2019-06-26T11:48:29.267Z,6.65
2019-06-26T11:50:59.002Z,5.90
2019-06-26T11:53:29.456Z,6.42
2019-06-26T11:55:59.589Z,6.10
2019-06-26T11:58:29.526Z,6.97
2019-06-26T12:00:59.602Z,6.50
2019-06-26T12:03:29.558Z,6.03
2019-06-26T12:06:15.485Z,7.33
2019-06-26T12:08:30.700Z,5.80
2019-06-26T12:10:59.894Z,6.07
2019-06-26T12:13:32.596Z,6.15
2019-06-26T12:16:00.946Z,5.97
2019-06-26T12:18:30.153Z,5.90
2019-06-26T12:21:00.284Z,5.67
2019-06-26T12:23:30.415Z,5.92
2019-06-26T12:26:00.413Z,6.10
2019-06-26T12:28:30.458Z,5.95
2019-06-26T12:31:00.537Z,5.87
2019-06-26T12:33:30.812Z,5.60
2019-06-26T12:36:00.885Z,5.33
2019-06-26T12:38:30.926Z,5.50
2019-06-26T12:41:00.964Z,11.55
2019-06-26T12:43:31.064Z,5.40
2019-06-26T12:46:01.210Z,5.37
2019-06-26T12:48:31.198Z,5.40
2019-06-26T12:51:01.204Z,5.53
2019-06-26T12:53:31.933Z,5.20
2019-06-26T12:56:02.015Z,5.75
2019-06-26T12:58:32.062Z,5.90
2019-06-26T13:01:02.158Z,6.42
2019-06-26T13:03:32.110Z,5.30
2019-06-26T13:06:02.118Z,5.28
2019-06-26T13:08:32.454Z,5.45
2019-06-26T13:11:02.461Z,5.62
2019-06-26T13:13:32.480Z,5.97
2019-06-26T13:16:02.664Z,5.47
2019-06-26T13:18:32.682Z,5.22
2019-06-26T13:21:05.028Z,5.40
2019-06-26T13:23:33.837Z,5.63
2019-06-26T13:26:03.245Z,5.40
2019-06-26T13:28:33.222Z,5.55
2019-06-26T13:31:03.354Z,5.80
2019-06-26T13:33:33.530Z,6.20
2019-06-26T13:36:04.688Z,6.20
2019-06-26T13:38:33.908Z,5.40
2019-06-26T13:41:03.626Z,5.37
2019-06-26T13:43:33.602Z,5.33
2019-06-26T13:46:03.758Z,5.00
2019-06-26T13:48:33.862Z,6.70
2019-06-26T13:51:09.463Z,6.00
2019-06-26T13:53:35.046Z,6.20
2019-06-26T13:56:04.302Z,6.07
2019-06-26T13:58:34.190Z,7.28
2019-06-26T14:01:04.354Z,6.50
2019-06-26T14:03:34.375Z,5.90
2019-06-26T14:06:05.130Z,5.65
2019-06-26T14:08:35.317Z,5.40
2019-06-26T14:11:07.436Z,5.87
2019-06-26T14:13:36.326Z,8.23
2019-06-26T14:16:05.808Z,6.80
2019-06-26T14:18:35.810Z,6.17
2019-06-26T14:21:05.672Z,6.20
2019-06-26T14:23:37.943Z,7.72
2019-06-26T14:26:06.930Z,6.17
2019-06-26T14:28:37.413Z,6.33
2019-06-26T14:31:06.882Z,5.87
2019-06-26T14:33:36.246Z,5.50
2019-06-26T14:36:06.121Z,5.97
2019-06-26T14:38:36.172Z,5.95
2019-06-26T14:41:06.797Z,5.85
2019-06-26T14:43:36.902Z,5.05
2019-06-26T14:46:06.933Z,6.03
2019-06-26T14:48:37.640Z,5.72
2019-06-26T14:51:07.774Z,8.28
2019-06-26T14:53:38.182Z,5.67
2019-06-26T14:56:08.214Z,5.85
2019-06-26T14:58:38.427Z,6.00
2019-06-26T15:01:08.464Z,6.83
2019-06-26T15:03:38.265Z,6.55
2019-06-26T15:06:16.285Z,7.20
2019-06-26T15:08:38.704Z,6.93
2019-06-26T15:11:08.483Z,6.97
2019-06-26T15:13:37.790Z,9.07
2019-06-26T15:16:07.255Z,7.20
2019-06-26T15:18:36.741Z,7.83
2019-06-26T15:21:06.141Z,7.00
2019-06-26T15:23:36.418Z,8.27
2019-06-26T15:26:05.887Z,8.90
2019-06-26T15:28:35.343Z,9.20
2019-06-26T15:31:04.784Z,9.17
2019-06-26T15:33:36.648Z,7.83
2019-06-26T15:36:05.858Z,7.23
2019-06-26T15:38:36.387Z,9.87
2019-06-26T15:41:06.224Z,7.45
2019-06-26T15:43:35.521Z,8.33
2019-06-26T15:46:06.427Z,10.35
2019-06-26T15:48:36.224Z,9.73
2019-06-26T15:51:06.341Z,8.45
2019-06-26T15:53:36.267Z,7.62
2019-06-26T15:56:06.333Z,8.38
2019-06-26T15:58:36.324Z,7.90
2019-06-26T16:01:06.390Z,8.23
2019-06-26T16:03:36.443Z,10.75
2019-06-26T16:06:06.564Z,7.75
2019-06-26T16:08:36.850Z,8.03
2019-06-26T16:11:06.955Z,7.72
2019-06-26T16:13:36.928Z,9.73
2019-06-26T16:16:07.038Z,10.28
2019-06-26T16:18:43.177Z,10.98
2019-06-26T16:21:13.424Z,10.73
2019-06-26T16:23:42.617Z,10.67
2019-06-26T16:26:13.457Z,9.48
2019-06-26T16:28:42.935Z,10.23
2019-06-26T16:31:12.428Z,11.17
2019-06-26T16:33:41.837Z,8.93
2019-06-26T16:36:11.030Z,9.60
2019-06-26T16:38:40.503Z,9.53
2019-06-26T16:41:09.765Z,9.67
2019-06-26T16:43:39.263Z,9.57
2019-06-26T16:46:08.729Z,11.23
2019-06-26T16:48:38.342Z,10.07
2019-06-26T16:51:08.417Z,9.47
2019-06-26T16:53:38.378Z,12.07
2019-06-26T16:56:08.442Z,8.47
2019-06-26T16:58:38.549Z,9.38
2019-06-26T17:01:08.885Z,8.13
2019-06-26T17:03:38.850Z,8.40
2019-06-26T17:06:09.154Z,10.70
2019-06-26T17:08:39.164Z,8.40
2019-06-26T17:11:09.351Z,9.04
2019-06-26T17:13:39.286Z,8.60
2019-06-26T17:16:09.282Z,9.50
2019-06-26T17:18:39.431Z,8.93
2019-06-26T17:21:09.410Z,8.63
2019-06-26T17:23:39.646Z,7.83
2019-06-26T17:26:09.758Z,10.10
2019-06-26T17:28:39.806Z,8.95
2019-06-26T17:31:10.094Z,8.15
2019-06-26T17:33:40.240Z,7.72
2019-06-26T17:36:10.339Z,8.83
2019-06-26T17:38:40.434Z,8.38
2019-06-26T17:41:11.596Z,7.74
2019-06-26T17:43:41.291Z,8.63
2019-06-26T17:46:11.287Z,7.97
2019-06-26T17:48:41.246Z,8.60
2019-06-26T17:51:11.279Z,8.05
2019-06-26T17:53:41.194Z,7.63
2019-06-26T17:56:11.616Z,8.58
2019-06-26T17:58:41.614Z,8.18
2019-06-26T18:01:11.697Z,8.33
2019-06-26T18:03:41.749Z,7.80
2019-06-26T18:06:12.127Z,7.87
2019-06-26T18:08:42.738Z,7.87
2019-06-26T18:11:12.255Z,8.35
2019-06-26T18:13:41.714Z,8.50
2019-06-26T18:16:11.189Z,7.70
2019-06-26T18:18:40.649Z,7.73
2019-06-26T18:21:10.129Z,7.47
2019-06-26T18:23:39.582Z,6.70
2019-06-26T18:26:13.433Z,9.37
2019-06-26T18:28:39.903Z,7.55
2019-06-26T18:31:09.445Z,7.40
2019-06-26T18:33:38.986Z,8.57
2019-06-26T18:36:08.481Z,11.73
2019-06-26T18:38:38.006Z,7.13
2019-06-26T18:41:07.481Z,7.54
2019-06-26T18:43:37.022Z,7.87
2019-06-26T18:46:06.758Z,8.13
2019-06-26T18:48:36.329Z,7.37
2019-06-26T18:51:05.808Z,8.40
2019-06-26T18:53:35.078Z,9.10
2019-06-26T18:56:04.262Z,8.23
2019-06-26T18:58:33.726Z,7.67
2019-06-26T19:01:03.159Z,7.67
2019-06-26T19:03:32.649Z,10.03
2019-06-26T19:06:02.124Z,7.97
2019-06-26T19:08:31.354Z,8.30
2019-06-26T19:11:00.920Z,7.10
2019-06-26T19:13:30.454Z,7.30
2019-06-26T19:15:59.777Z,7.77
2019-06-26T19:18:29.538Z,7.70
2019-06-26T19:20:59.010Z,7.80
2019-06-26T19:23:28.515Z,7.70
2019-06-26T19:25:57.940Z,8.43
2019-06-26T19:28:28.207Z,7.87
2019-06-26T19:30:57.755Z,7.57
2019-06-26T19:33:27.229Z,7.57
2019-06-26T19:35:56.496Z,7.60
2019-06-26T19:38:25.693Z,9.90
2019-06-26T19:40:54.889Z,7.53
2019-06-26T19:43:24.426Z,7.77
2019-06-26T19:45:53.910Z,7.98
2019-06-26T19:48:23.405Z,8.47
2019-06-26T19:50:52.930Z,7.73
2019-06-26T19:53:22.400Z,7.00
2019-06-26T19:55:51.595Z,9.10
2019-06-26T19:58:21.645Z,7.90
2019-06-26T20:00:51.291Z,9.23
2019-06-26T20:03:20.614Z,7.70
2019-06-26T20:05:50.510Z,7.57
2019-06-26T20:08:20.523Z,7.40
2019-06-26T20:10:50.625Z,8.75
2019-06-26T20:13:20.857Z,7.03
2019-06-26T20:15:50.891Z,7.67
2019-06-26T20:18:21.258Z,8.10
2019-06-26T20:20:51.214Z,11.83
2019-06-26T20:23:21.123Z,7.00
2019-06-26T20:25:51.191Z,7.42
2019-06-26T20:28:21.181Z,7.58
2019-06-26T20:30:50.989Z,7.43
2019-06-26T20:33:21.310Z,7.42
2019-06-26T20:35:51.519Z,7.60
2019-06-26T20:38:22.123Z,7.57
2019-06-26T20:40:51.830Z,8.40
2019-06-26T20:43:22.300Z,8.10
2019-06-26T20:45:52.440Z,8.60
2019-06-26T20:48:22.454Z,7.75
2019-06-26T20:50:52.182Z,8.00
2019-06-26T20:53:22.557Z,7.12
2019-06-26T20:55:52.914Z,8.23
2019-06-26T20:58:22.884Z,7.57
2019-06-26T21:00:52.930Z,8.13
2019-06-26T21:03:22.133Z,9.60
2019-06-26T21:05:51.607Z,8.17
2019-06-26T21:08:20.896Z,7.80
2019-06-26T21:10:50.383Z,8.00
2019-06-26T21:13:19.843Z,8.85
2019-06-26T21:15:52.778Z,7.83
2019-06-26T21:18:20.257Z,8.20
2019-06-26T21:20:49.759Z,7.57
2019-06-26T21:23:20.199Z,7.90
2019-06-26T21:25:50.377Z,8.73
2019-06-26T21:28:19.834Z,7.93
2019-06-26T21:30:49.295Z,8.73
2019-06-26T21:33:18.619Z,7.97
2019-06-26T21:35:48.100Z,7.93
2019-06-26T21:38:17.653Z,8.63
2019-06-26T21:40:47.199Z,8.63
2019-06-26T21:43:16.770Z,7.80
2019-06-26T21:45:46.571Z,9.67
2019-06-26T21:48:15.799Z,10.20
2019-06-26T21:50:45.567Z,8.78
2019-06-26T21:53:15.052Z,8.90
2019-06-26T21:56:02.585Z,9.63
2019-06-26T21:58:50.262Z,8.93
2019-06-26T22:01:37.459Z,8.00
2019-06-26T22:04:24.866Z,9.13
2019-06-26T22:07:05.167Z,8.77
2019-06-26T22:09:36.264Z,8.27
2019-06-26T22:12:06.363Z,8.05
2019-06-26T22:14:35.886Z,8.80
2019-06-26T22:17:05.430Z,8.53
2019-06-26T22:19:34.963Z,8.40
2019-06-26T22:22:04.254Z,8.80
2019-06-26T22:24:33.726Z,9.13
2019-06-26T22:27:03.194Z,9.17
2019-06-26T22:29:32.414Z,8.20
2019-06-26T22:32:01.883Z,8.40
2019-06-26T22:34:31.188Z,9.47
2019-06-26T22:37:00.660Z,8.08
2019-06-26T22:39:30.208Z,8.23
2019-06-26T22:41:59.994Z,8.90
2019-06-26T22:44:29.472Z,8.65
2019-06-26T22:46:59.028Z,8.58
2019-06-26T22:49:28.491Z,9.07
2019-06-26T22:51:57.686Z,9.33
2019-06-26T22:54:27.491Z,9.00
2019-06-26T22:56:56.725Z,8.37
2019-06-26T22:59:25.947Z,9.33
2019-06-26T23:01:55.484Z,8.48
2019-06-26T23:04:25.035Z,8.90
2019-06-26T23:06:54.628Z,9.30
2019-06-26T23:09:24.983Z,8.80
2019-06-26T23:11:54.469Z,9.08
2019-06-26T23:14:24.179Z,9.17
2019-06-26T23:16:53.647Z,10.30
2019-06-26T23:19:22.867Z,8.85
2019-06-26T23:21:53.808Z,9.30
2019-06-26T23:24:23.842Z,9.43
2019-06-26T23:26:53.826Z,9.53
2019-06-26T23:29:23.783Z,8.75
2019-06-26T23:31:53.791Z,9.05
2019-06-26T23:34:23.809Z,10.10
2019-06-26T23:36:53.843Z,9.33
2019-06-26T23:39:23.966Z,9.53
2019-06-26T23:41:53.971Z,9.08
2019-06-26T23:44:23.974Z,9.88
2019-06-26T23:46:54.007Z,9.20
2019-06-26T23:49:24.110Z,9.80
2019-06-26T23:51:54.265Z,9.30
2019-06-26T23:54:24.259Z,10.95
2019-06-26T23:56:54.298Z,10.32
2019-06-26T23:59:24.399Z,9.35
